KLUK/LUK METAR and TAF weather

Enter ICAO airport designator
Station Type Date Time Source
KLUK METAR 2019/08/22 14:53 UTC NOAA

KLUK 221453Z 28005KT 10SM SCT011 23/21 A3001 RMK AO2 SLP157 T02330206 51019


Station Type Date Time Source
KLUK Decoded METAR 2019/08/22 14:53 UTC NOAA

Station name not available
Aug 22, 2019 - 10:53 AM EDT / 2019.08.22 1453 UTC
Wind: from the W (280 degrees) at 6 MPH (5 KT):0
Visibility: 10 mile(s):0
Sky conditions: partly cloudy
Temperature: 73.9 F (23.3 C)
Dew Point: 69.1 F (20.6 C)
Relative Humidity: 84%
Pressure (altimeter): 30.01 in. Hg (1016 hPa)
Pressure tendency: 0.06 inches (1.9 hPa) higher than three hours ago
ob: KLUK 221453Z 28005KT 10SM SCT011 23/21 A3001 RMK AO2 SLP157 T02330206 51019
cycle: 15

Station Type Date Time Source
KLUK TAF 2019/08/22 15:58 UTC NOAA

TAF
AMD KLUK 221456Z 2215/2312 25008KT P6SM FEW008 OVC035
FM222100 28008KT P6SM VCSH BKN040
FM230500 04006KT P6SM OVC015

Example: see airport list